createdAt,value
2017-11-22T00:00:15.686Z,16.27
2017-11-22T00:02:43.223Z,11.73
2017-11-22T00:05:10.749Z,13.65
2017-11-22T00:07:38.264Z,17.87
2017-11-22T00:10:06.070Z,17.62
2017-11-22T00:12:34.452Z,13.77
2017-11-22T00:15:01.961Z,15.57
2017-11-22T00:17:29.518Z,16.25
2017-11-22T00:19:57.030Z,11.25
2017-11-22T00:22:24.539Z,18.33
2017-11-22T00:24:52.247Z,21.05
2017-11-22T00:27:19.805Z,12.48
2017-11-22T00:29:47.363Z,15.00
2017-11-22T00:32:14.910Z,17.87
2017-11-22T00:34:42.481Z,20.92
2017-11-22T00:37:09.992Z,14.80
2017-11-22T00:39:37.532Z,20.58
2017-11-22T00:42:05.047Z,28.77
2017-11-22T00:44:32.615Z,14.27
2017-11-22T00:47:00.174Z,12.00
2017-11-22T00:49:27.735Z,17.02
2017-11-22T00:51:55.309Z,17.02
2017-11-22T00:54:23.031Z,17.60
2017-11-22T00:56:50.621Z,12.70
2017-11-22T00:59:18.175Z,12.05
2017-11-22T01:01:45.914Z,19.30
2017-11-22T01:04:13.423Z,13.07
2017-11-22T01:06:40.938Z,16.05
2017-11-22T01:09:08.615Z,22.00
2017-11-22T01:11:36.196Z,15.13
2017-11-22T01:14:03.708Z,20.12
2017-11-22T01:16:31.471Z,15.18
2017-11-22T01:18:59.157Z,10.88
2017-11-22T01:21:26.668Z,26.10
2017-11-22T01:23:54.481Z,12.77
2017-11-22T01:26:21.996Z,15.40
2017-11-22T01:28:49.513Z,15.38
2017-11-22T01:31:17.260Z,9.75
2017-11-22T01:33:44.768Z,9.90
2017-11-22T01:36:12.301Z,12.32
2017-11-22T01:38:40.119Z,13.45
2017-11-22T01:41:07.633Z,21.02
2017-11-22T01:43:35.164Z,13.88
2017-11-22T01:46:02.824Z,20.73
2017-11-22T01:48:30.380Z,17.58
2017-11-22T01:50:59.507Z,11.40
2017-11-22T01:53:27.256Z,10.00
2017-11-22T01:55:54.799Z,24.25
2017-11-22T01:58:22.311Z,13.95
2017-11-22T02:00:53.807Z,10.68
2017-11-22T02:03:21.366Z,15.77
2017-11-22T02:05:48.875Z,10.65
2017-11-22T02:08:16.568Z,17.12
2017-11-22T02:10:44.079Z,13.02
2017-11-22T02:13:11.587Z,17.83
2017-11-22T02:15:39.182Z,9.63
2017-11-22T02:18:06.726Z,8.77
2017-11-22T02:20:34.303Z,8.93
2017-11-22T02:23:02.554Z,14.40
2017-11-22T02:25:30.068Z,11.85
2017-11-22T02:27:57.579Z,12.63
2017-11-22T02:30:25.131Z,17.05
2017-11-22T02:32:52.996Z,12.18
2017-11-22T02:35:20.508Z,26.92
2017-11-22T02:37:48.042Z,6.82
2017-11-22T02:40:15.567Z,13.88
2017-11-22T02:42:43.100Z,16.50
2017-11-22T02:45:10.656Z,13.10
2017-11-22T02:47:38.163Z,14.63
2017-11-22T02:50:05.708Z,10.32
2017-11-22T02:52:33.448Z,13.30
2017-11-22T02:55:00.961Z,11.68
2017-11-22T02:57:28.491Z,12.55
2017-11-22T02:59:56.247Z,14.02
2017-11-22T03:02:23.760Z,17.35
2017-11-22T03:04:51.279Z,11.12
2017-11-22T03:07:19.208Z,13.40
2017-11-22T03:09:46.716Z,18.62
2017-11-22T03:12:14.231Z,17.33
2017-11-22T03:14:42.055Z,13.02
2017-11-22T03:17:09.558Z,10.68
2017-11-22T03:19:37.071Z,19.85
2017-11-22T03:22:04.791Z,9.02
2017-11-22T03:24:32.300Z,17.48
2017-11-22T03:26:59.828Z,13.68
2017-11-22T03:29:27.647Z,10.20
2017-11-22T03:31:55.163Z,10.57
2017-11-22T03:34:22.677Z,10.50
2017-11-22T03:36:50.249Z,11.18
2017-11-22T03:39:17.763Z,13.80
2017-11-22T03:41:45.284Z,14.77
2017-11-22T03:44:13.028Z,14.27
2017-11-22T03:46:40.608Z,10.10
2017-11-22T03:49:08.146Z,10.57
2017-11-22T03:51:41.410Z,18.92
2017-11-22T03:54:08.912Z,6.35
2017-11-22T03:56:36.561Z,9.95
2017-11-22T03:59:04.426Z,9.05
2017-11-22T04:01:46.647Z,6.22
2017-11-22T04:04:16.925Z,11.45
2017-11-22T04:06:44.434Z,9.93
2017-11-22T04:09:11.976Z,11.23
2017-11-22T04:11:39.711Z,5.60
2017-11-22T04:14:07.224Z,10.63
2017-11-22T04:16:34.730Z,11.30
2017-11-22T04:19:08.039Z,13.10
2017-11-22T04:21:35.700Z,6.12
2017-11-22T04:24:03.213Z,16.75
2017-11-22T04:26:30.755Z,15.95
2017-11-22T04:28:58.281Z,11.30
2017-11-22T04:31:25.797Z,16.85
2017-11-22T04:33:53.346Z,11.07
2017-11-22T04:36:20.858Z,22.02
2017-11-22T04:38:48.437Z,9.27
2017-11-22T04:41:15.979Z,10.00
2017-11-22T04:43:43.526Z,21.08
2017-11-22T04:46:11.047Z,24.23
2017-11-22T04:48:38.631Z,26.73
2017-11-22T04:51:06.206Z,10.50
2017-11-22T04:53:33.728Z,11.15
2017-11-22T04:56:01.604Z,14.02
2017-11-22T04:58:29.115Z,12.40
2017-11-22T05:00:56.646Z,15.07
2017-11-22T05:03:24.305Z,11.60
2017-11-22T05:05:52.595Z,9.32
2017-11-22T05:08:20.112Z,13.75
2017-11-22T05:10:47.774Z,9.85
2017-11-22T05:13:15.288Z,15.70
2017-11-22T05:15:42.805Z,24.87
2017-11-22T05:18:10.563Z,14.43
2017-11-22T05:20:38.071Z,12.52
2017-11-22T05:23:05.598Z,11.02
2017-11-22T05:25:33.342Z,11.38
2017-11-22T05:28:00.852Z,12.30
2017-11-22T05:30:28.362Z,13.88
2017-11-22T05:32:56.260Z,10.57
2017-11-22T05:35:23.804Z,19.75
2017-11-22T05:37:51.312Z,10.15
2017-11-22T05:40:18.855Z,7.15
2017-11-22T05:42:46.378Z,17.55
2017-11-22T05:45:13.891Z,14.95
2017-11-22T05:47:41.702Z,14.98
2017-11-22T05:50:09.273Z,12.48
2017-11-22T05:52:36.820Z,14.10
2017-11-22T05:55:04.360Z,21.27
2017-11-22T05:57:31.882Z,18.92
2017-11-22T05:59:59.392Z,12.73
2017-11-22T06:02:27.337Z,14.98
2017-11-22T06:04:54.851Z,24.58
2017-11-22T06:07:22.363Z,23.65
2017-11-22T06:09:51.064Z,24.20
2017-11-22T06:12:18.622Z,25.42
2017-11-22T06:14:46.137Z,31.02
2017-11-22T06:17:14.050Z,30.40
2017-11-22T06:19:41.628Z,37.22
2017-11-22T06:22:09.172Z,31.42
2017-11-22T06:24:36.932Z,23.17
2017-11-22T06:27:04.453Z,27.20
2017-11-22T06:29:31.971Z,28.15
2017-11-22T06:31:59.799Z,25.52
2017-11-22T06:34:27.474Z,26.77
2017-11-22T06:36:55.033Z,22.95
2017-11-22T06:39:24.540Z,27.60
2017-11-22T06:41:52.109Z,26.73
2017-11-22T06:44:19.674Z,31.58
2017-11-22T06:46:47.222Z,25.98
2017-11-22T06:49:14.774Z,32.63
2017-11-22T06:51:42.284Z,19.50
2017-11-22T06:54:10.077Z,23.48
2017-11-22T06:56:37.587Z,21.92
2017-11-22T06:59:05.113Z,22.73
2017-11-22T07:01:32.979Z,16.30
2017-11-22T07:04:00.479Z,18.27
2017-11-22T07:06:27.995Z,28.33
2017-11-22T07:08:55.968Z,29.20
2017-11-22T07:11:23.523Z,31.85
2017-11-22T07:13:51.031Z,23.65
2017-11-22T07:16:24.888Z,19.98
2017-11-22T07:18:52.411Z,23.77
2017-11-22T07:21:19.933Z,23.70
2017-11-22T07:23:47.573Z,31.92
2017-11-22T07:26:15.617Z,23.20
2017-11-22T07:28:43.144Z,27.02
2017-11-22T07:31:10.735Z,22.20
2017-11-22T07:33:38.247Z,35.10
2017-11-22T07:36:11.299Z,32.38
2017-11-22T07:38:38.811Z,23.67
2017-11-22T07:41:07.358Z,27.60
2017-11-22T07:43:35.183Z,25.95
2017-11-22T07:46:02.691Z,22.80
2017-11-22T07:48:30.221Z,19.15
2017-11-22T07:54:01.899Z,22.80
2017-11-22T07:56:29.659Z,17.55
2017-11-22T07:58:57.177Z,32.20
2017-11-22T08:01:24.779Z,37.63
2017-11-22T08:03:58.173Z,21.83
2017-11-22T08:06:25.682Z,22.52
2017-11-22T08:08:53.192Z,27.13
2017-11-22T08:11:21.694Z,19.65
2017-11-22T08:13:49.229Z,21.65
2017-11-22T08:16:16.846Z,23.00
2017-11-22T08:18:44.402Z,19.52
2017-11-22T08:21:11.920Z,19.95
2017-11-22T08:23:39.466Z,23.27
2017-11-22T08:26:07.024Z,13.80
2017-11-22T08:28:34.544Z,15.75
2017-11-22T08:31:02.062Z,24.95
2017-11-22T08:33:30.430Z,23.52
2017-11-22T08:35:57.980Z,21.05
2017-11-22T08:38:25.537Z,13.65
2017-11-22T08:40:53.202Z,20.35
2017-11-22T08:43:26.405Z,15.75
2017-11-22T08:45:54.155Z,36.83
2017-11-22T08:48:21.728Z,23.00
2017-11-22T08:50:49.265Z,16.25
2017-11-22T08:53:16.831Z,17.65
2017-11-22T08:55:50.038Z,25.40
2017-11-22T08:58:17.591Z,19.40
2017-11-22T09:00:45.139Z,24.20
2017-11-22T09:03:15.447Z,22.62
2017-11-22T09:05:49.055Z,15.63
2017-11-22T09:08:16.631Z,22.90
2017-11-22T09:10:44.185Z,11.88
2017-11-22T09:13:17.380Z,20.98
2017-11-22T09:15:44.932Z,12.30
2017-11-22T09:18:13.198Z,14.70
2017-11-22T09:20:40.758Z,20.03
2017-11-22T09:23:08.331Z,14.27
2017-11-22T09:25:36.755Z,35.77
2017-11-22T09:28:04.382Z,17.20
2017-11-22T09:30:31.934Z,17.27
2017-11-22T09:33:14.415Z,12.83
2017-11-22T09:35:42.403Z,22.73
2017-11-22T09:38:09.981Z,14.67
2017-11-22T09:40:37.547Z,15.23
2017-11-22T09:43:05.075Z,14.37
2017-11-22T09:45:32.595Z,11.80
2017-11-22T09:48:00.314Z,14.17
2017-11-22T09:50:28.275Z,18.53
2017-11-22T09:52:55.791Z,21.80
2017-11-22T09:55:23.389Z,19.17
2017-11-22T09:57:50.904Z,19.83
2017-11-22T10:00:18.427Z,17.93
2017-11-22T10:02:46.343Z,13.07
2017-11-22T10:05:13.863Z,12.33
2017-11-22T10:07:41.389Z,18.60
2017-11-22T10:10:08.962Z,15.07
2017-11-22T10:12:36.507Z,16.67
2017-11-22T10:15:04.066Z,11.97
2017-11-22T10:17:32.559Z,16.87
2017-11-22T10:20:03.904Z,13.67
2017-11-22T10:22:37.088Z,16.00
2017-11-22T10:25:10.544Z,14.63
2017-11-22T10:27:48.691Z,13.53
2017-11-22T10:30:17.273Z,22.43
2017-11-22T10:32:49.658Z,12.40
2017-11-22T10:35:17.206Z,14.63
2017-11-22T10:37:44.780Z,14.83
2017-11-22T10:40:12.327Z,14.13
2017-11-22T10:42:39.834Z,21.10
2017-11-22T10:45:07.420Z,13.60
2017-11-22T10:47:38.994Z,16.00
2017-11-22T10:50:10.241Z,17.43
2017-11-22T10:52:42.221Z,8.70
2017-11-22T10:57:52.049Z,11.57
2017-11-22T11:00:19.788Z,10.13
2017-11-22T11:02:49.536Z,13.50
2017-11-22T11:05:20.372Z,28.80
2017-11-22T11:07:49.476Z,11.63
2017-11-22T11:10:17.748Z,11.53
2017-11-22T11:12:46.230Z,16.37
2017-11-22T11:15:16.556Z,8.77
2017-11-22T11:17:44.225Z,18.63
2017-11-22T11:20:21.667Z,9.90
2017-11-22T11:22:52.543Z,8.53
2017-11-22T11:25:28.255Z,17.20
2017-11-22T11:27:56.868Z,12.80
2017-11-22T11:30:36.305Z,14.63
2017-11-22T11:33:06.842Z,14.60
2017-11-22T11:35:47.003Z,7.27
2017-11-22T11:38:15.363Z,19.80
2017-11-22T11:40:44.779Z,8.07
2017-11-22T11:43:17.261Z,14.13
2017-11-22T11:45:46.398Z,8.57
2017-11-22T11:48:16.364Z,14.80
2017-11-22T11:50:46.480Z,10.17
2017-11-22T11:53:14.246Z,10.67
2017-11-22T11:55:44.977Z,8.23
2017-11-22T11:58:14.926Z,12.53
2017-11-22T12:00:42.478Z,9.43
2017-11-22T12:03:10.295Z,10.30
2017-11-22T12:05:37.811Z,8.33
2017-11-22T12:08:05.327Z,12.37
2017-11-22T12:10:33.002Z,12.67
2017-11-22T12:13:00.563Z,12.40
2017-11-22T12:15:28.129Z,21.10
2017-11-22T12:17:55.880Z,8.90
2017-11-22T12:20:23.398Z,27.83
2017-11-22T12:22:57.191Z,24.60
2017-11-22T12:25:24.703Z,17.77
2017-11-22T12:27:54.200Z,26.00
2017-11-22T12:30:21.767Z,25.23
2017-11-22T12:32:49.547Z,28.90
2017-11-22T12:35:17.089Z,30.60
2017-11-22T12:37:44.827Z,29.03
2017-11-22T12:40:12.344Z,28.30
2017-11-22T12:42:39.855Z,26.07
2017-11-22T12:45:07.528Z,24.37
2017-11-22T12:47:35.601Z,30.57
2017-11-22T12:50:03.159Z,23.63
2017-11-22T12:52:30.742Z,32.33
2017-11-22T12:54:58.259Z,32.30
2017-11-22T12:57:25.770Z,31.37
2017-11-22T12:59:53.497Z,29.50
2017-11-22T13:02:21.073Z,31.13
2017-11-22T13:04:48.616Z,29.47
2017-11-22T13:07:16.255Z,87.00
2017-11-22T13:09:43.777Z,31.47
2017-11-22T13:12:11.304Z,23.27
2017-11-22T13:14:38.867Z,27.70
2017-11-22T13:17:06.396Z,29.33
2017-11-22T13:19:33.917Z,22.47
2017-11-22T13:22:01.629Z,24.43
2017-11-22T13:24:29.142Z,29.60
2017-11-22T13:26:56.665Z,26.97
2017-11-22T13:29:24.390Z,31.83
2017-11-22T13:31:51.902Z,23.47
2017-11-22T13:34:19.424Z,20.67
2017-11-22T13:36:47.089Z,30.67
2017-11-22T13:39:14.649Z,31.97
2017-11-22T13:41:45.993Z,28.53
2017-11-22T13:44:13.770Z,37.03
2017-11-22T13:46:41.337Z,37.33
2017-11-22T13:49:08.854Z,23.23
2017-11-22T13:51:36.539Z,19.90
2017-11-22T13:54:04.059Z,24.33
2017-11-22T13:56:31.586Z,22.60
2017-11-22T13:58:59.130Z,27.80
2017-11-22T14:01:26.672Z,44.90
2017-11-22T14:03:54.232Z,36.60
2017-11-22T14:06:21.997Z,30.87
2017-11-22T14:08:49.556Z,37.03
2017-11-22T14:11:17.115Z,41.40
2017-11-22T14:13:45.083Z,39.73
2017-11-22T14:16:12.643Z,22.10
2017-11-22T14:18:40.202Z,27.23
2017-11-22T14:21:07.760Z,38.17
2017-11-22T14:23:35.319Z,35.10
2017-11-22T14:26:02.882Z,33.17
2017-11-22T14:28:30.447Z,35.07
2017-11-22T14:30:57.998Z,39.50
2017-11-22T14:33:25.555Z,34.77
2017-11-22T14:35:53.135Z,32.60
2017-11-22T14:38:20.674Z,29.13
2017-11-22T14:40:48.233Z,30.60
2017-11-22T14:43:15.926Z,29.60
2017-11-22T14:45:43.435Z,54.73
2017-11-22T14:48:10.963Z,49.90
2017-11-22T14:50:38.685Z,29.53
2017-11-22T14:53:06.644Z,38.87
2017-11-22T14:55:34.203Z,35.83
2017-11-22T14:58:01.779Z,37.40
2017-11-22T15:00:29.321Z,31.43
2017-11-22T15:02:56.967Z,35.07
2017-11-22T15:05:24.849Z,34.03
2017-11-22T15:07:52.511Z,41.43
2017-11-22T15:10:20.171Z,38.10
2017-11-22T15:12:48.556Z,36.60
2017-11-22T15:15:16.136Z,54.03
2017-11-22T15:17:43.769Z,38.57
2017-11-22T15:20:11.742Z,32.10
2017-11-22T15:22:39.507Z,40.57
2017-11-22T15:25:07.802Z,31.07
2017-11-22T15:27:35.617Z,48.03
2017-11-22T15:30:03.312Z,30.27
2017-11-22T15:32:30.955Z,35.93
2017-11-22T15:34:58.730Z,34.30
2017-11-22T15:37:26.599Z,44.70
2017-11-22T15:39:54.147Z,38.80
2017-11-22T15:42:21.899Z,37.60
2017-11-22T15:44:49.419Z,38.40
2017-11-22T15:47:16.944Z,35.73
2017-11-22T15:49:44.500Z,48.20
2017-11-22T15:52:12.044Z,55.93
2017-11-22T15:54:39.613Z,50.97
2017-11-22T15:57:07.175Z,40.38
2017-11-22T15:59:34.832Z,40.78
2017-11-22T16:02:02.392Z,43.13
2017-11-22T16:04:30.257Z,50.35
2017-11-22T16:06:58.024Z,42.08
2017-11-22T16:09:25.583Z,38.45
2017-11-22T16:11:53.142Z,52.10
2017-11-22T16:14:20.806Z,43.08
2017-11-22T16:16:48.364Z,38.00
2017-11-22T16:19:16.226Z,55.50
2017-11-22T16:21:43.786Z,44.28
2017-11-22T16:24:11.370Z,33.30
2017-11-22T16:26:39.317Z,55.55
2017-11-22T16:29:06.894Z,29.52
2017-11-22T16:31:34.432Z,31.50
2017-11-22T16:34:02.987Z,22.30
2017-11-22T16:36:30.686Z,28.92
2017-11-22T16:38:58.243Z,22.87
2017-11-22T16:41:26.101Z,34.53
2017-11-22T16:43:53.683Z,28.35
2017-11-22T16:46:21.632Z,27.23
2017-11-22T16:48:49.230Z,19.42
2017-11-22T16:51:16.943Z,22.95
2017-11-22T16:53:44.614Z,23.83
2017-11-22T16:56:12.599Z,26.20
2017-11-22T16:58:40.295Z,31.65
2017-11-22T17:01:07.912Z,26.50
2017-11-22T17:03:35.933Z,17.50
2017-11-22T17:06:03.638Z,19.60
2017-11-22T17:08:31.306Z,32.20
2017-11-22T17:10:59.139Z,24.80
2017-11-22T17:13:26.827Z,33.80
2017-11-22T17:15:54.587Z,19.42
2017-11-22T17:18:22.382Z,21.15
2017-11-22T17:20:50.155Z,26.75
2017-11-22T17:23:17.920Z,13.32
2017-11-22T17:25:45.647Z,16.40
2017-11-22T17:28:13.171Z,21.73
2017-11-22T17:30:40.970Z,11.52
2017-11-22T17:33:08.559Z,20.70
2017-11-22T17:35:36.522Z,14.85
2017-11-22T17:38:04.160Z,18.42
2017-11-22T17:40:32.230Z,18.37
2017-11-22T17:42:59.891Z,20.52
2017-11-22T17:45:27.598Z,17.17
2017-11-22T17:47:55.323Z,17.02
2017-11-22T17:50:24.422Z,17.05
2017-11-22T17:52:51.970Z,18.60
2017-11-22T17:55:24.651Z,22.67
2017-11-22T17:57:52.312Z,13.62
2017-11-22T18:00:19.972Z,19.00
2017-11-22T18:02:47.755Z,12.57
2017-11-22T18:05:15.921Z,10.60
2017-11-22T18:07:43.647Z,18.60
2017-11-22T18:10:11.176Z,19.02
2017-11-22T18:12:38.695Z,17.95
2017-11-22T18:15:06.244Z,16.87
2017-11-22T18:17:33.809Z,42.88
2017-11-22T18:20:01.367Z,25.75
2017-11-22T18:22:29.131Z,13.75
2017-11-22T18:24:56.693Z,21.08
2017-11-22T18:27:24.359Z,19.37
2017-11-22T18:29:52.629Z,11.12
2017-11-22T18:32:20.227Z,11.82
2017-11-22T18:34:47.750Z,14.38
2017-11-22T18:37:17.490Z,16.12
2017-11-22T18:39:45.124Z,16.42
2017-11-22T18:42:12.885Z,11.70
2017-11-22T18:44:40.855Z,22.70
2017-11-22T18:47:08.731Z,14.85
2017-11-22T18:49:37.610Z,18.90
2017-11-22T18:52:05.374Z,17.60
2017-11-22T18:54:33.133Z,18.12
2017-11-22T18:57:01.011Z,14.27
2017-11-22T18:59:29.380Z,15.20
2017-11-22T19:01:58.072Z,15.27
2017-11-22T19:04:25.845Z,19.67
2017-11-22T19:06:53.804Z,10.93
2017-11-22T19:09:21.644Z,12.05
2017-11-22T19:11:49.531Z,15.95
2017-11-22T19:14:17.805Z,13.35
2017-11-22T19:16:46.213Z,24.87
2017-11-22T19:19:13.785Z,14.13
2017-11-22T19:21:41.515Z,12.70
2017-11-22T19:24:09.680Z,16.17
2017-11-22T19:26:37.444Z,15.32
2017-11-22T19:29:05.317Z,21.30
2017-11-22T19:31:32.897Z,11.48
2017-11-22T19:34:00.625Z,13.10
2017-11-22T19:36:28.636Z,15.32
2017-11-22T19:38:56.368Z,13.82
2017-11-22T19:41:24.027Z,10.05
2017-11-22T19:43:52.055Z,11.20
2017-11-22T19:46:19.720Z,15.95
2017-11-22T19:48:49.673Z,19.05
2017-11-22T19:51:17.869Z,18.85
2017-11-22T19:53:46.126Z,14.38
2017-11-22T19:56:14.762Z,17.50
2017-11-22T19:58:42.895Z,10.40
2017-11-22T20:01:10.748Z,10.50
2017-11-22T20:03:38.511Z,18.83
2017-11-22T20:06:07.354Z,9.85
2017-11-22T20:08:41.569Z,13.60
2017-11-22T20:11:09.236Z,15.77
2017-11-22T20:13:37.041Z,22.67
2017-11-22T20:16:05.723Z,19.40
2017-11-22T20:18:33.671Z,15.10
2017-11-22T20:21:01.357Z,12.88
2017-11-22T20:23:29.223Z,21.52
2017-11-22T20:25:57.494Z,12.35
2017-11-22T20:28:25.267Z,10.25
2017-11-22T20:30:53.046Z,11.27
2017-11-22T20:33:21.100Z,5.65
2017-11-22T20:35:48.966Z,15.80
2017-11-22T20:38:16.550Z,10.82
2017-11-22T20:40:44.704Z,14.85
2017-11-22T20:43:12.984Z,12.80
2017-11-22T20:45:40.532Z,10.00
2017-11-22T20:48:08.604Z,10.88
2017-11-22T20:50:36.192Z,9.68
2017-11-22T20:53:03.945Z,15.82
2017-11-22T20:55:32.631Z,14.02
2017-11-22T20:58:00.378Z,16.50
2017-11-22T21:00:28.244Z,12.02
2017-11-22T21:02:56.109Z,8.38
2017-11-22T21:05:24.384Z,18.45
2017-11-22T21:07:52.674Z,16.20
2017-11-22T21:10:20.659Z,9.38
2017-11-22T21:12:48.495Z,7.35
2017-11-22T21:15:16.261Z,7.00
2017-11-22T21:17:44.537Z,13.10
2017-11-22T21:20:12.402Z,9.02
2017-11-22T21:22:40.269Z,11.57
2017-11-22T21:25:08.451Z,15.10
2017-11-22T21:27:36.081Z,14.20
2017-11-22T21:30:03.876Z,14.63
2017-11-22T21:32:32.154Z,11.75
2017-11-22T21:34:59.905Z,10.90
2017-11-22T21:37:27.679Z,12.52
2017-11-22T21:39:56.062Z,10.05
2017-11-22T21:42:23.812Z,9.82
2017-11-22T21:44:51.475Z,11.07
2017-11-22T21:47:19.316Z,10.00
2017-11-22T21:49:46.823Z,7.37
2017-11-22T21:52:14.398Z,10.68
2017-11-22T21:54:42.530Z,10.40
2017-11-22T21:57:10.147Z,6.90
2017-11-22T21:59:37.687Z,10.70
2017-11-22T22:02:05.521Z,8.13
2017-11-22T22:04:33.089Z,11.07
2017-11-22T22:07:00.633Z,11.02
2017-11-22T22:09:28.193Z,10.20
2017-11-22T22:11:55.698Z,12.55
2017-11-22T22:14:23.208Z,8.35
2017-11-22T22:16:50.751Z,19.92
2017-11-22T22:19:18.451Z,13.30
2017-11-22T22:21:45.966Z,10.73
2017-11-22T22:24:13.791Z,9.70
2017-11-22T22:26:41.308Z,6.87
2017-11-22T22:29:08.828Z,19.83
2017-11-22T22:31:36.382Z,6.82
2017-11-22T22:34:03.892Z,8.30
2017-11-22T22:36:31.450Z,9.05
2017-11-22T22:38:59.018Z,9.77
2017-11-22T22:41:26.529Z,9.20
2017-11-22T22:43:54.046Z,10.27
2017-11-22T22:46:21.590Z,9.73
2017-11-22T22:48:49.137Z,10.50
2017-11-22T22:51:16.697Z,22.20
2017-11-22T22:53:44.440Z,8.82
2017-11-22T22:56:11.948Z,7.68
2017-11-22T22:58:39.454Z,7.12
2017-11-22T23:01:07.036Z,10.18
2017-11-22T23:03:34.595Z,5.90
2017-11-22T23:06:03.282Z,10.10
2017-11-22T23:08:31.603Z,10.10
2017-11-22T23:11:00.327Z,8.75
2017-11-22T23:13:29.337Z,9.25
2017-11-22T23:15:57.402Z,8.95
2017-11-22T23:18:25.786Z,7.85
2017-11-22T23:20:53.353Z,16.60
2017-11-22T23:23:21.740Z,7.57
2017-11-22T23:25:49.282Z,8.05
2017-11-22T23:28:16.949Z,7.12
2017-11-22T23:30:45.157Z,12.65
2017-11-22T23:33:12.752Z,7.43
2017-11-22T23:35:43.864Z,12.43
2017-11-22T23:38:11.431Z,17.45
2017-11-22T23:40:38.935Z,7.60
2017-11-22T23:43:07.700Z,18.02
2017-11-22T23:45:35.215Z,5.45
2017-11-22T23:48:02.742Z,12.48
2017-11-22T23:50:30.711Z,10.32
2017-11-22T23:52:58.479Z,8.40
2017-11-22T23:55:26.034Z,10.80
2017-11-22T23:57:53.797Z,15.18
